Time;durP1;ratioP1;P1;durP2;ratioP2;P2;SDS_P1;SDS_P2;PMS_P1;PMS_P2;Temp;Humidity;BMP_temperature;BMP_pressure;BME280_temperature;BME280_humidity;BME280_pressure;Samples;Min_cycle;Max_cycle;Signal;HPM_P1;HPM_P2
2022/12/14 00:05:00;;;;;;;10.90;8.98;;;;;;;-0.95;61.06;99078.34;10360592;28;20059;-48
2022/12/14 00:10:01;;;;;;;10.88;8.60;;;;;;;-0.86;60.08;99082.25;10351201;28;20308;-49
2022/12/14 00:15:03;;;;;;;10.32;8.15;;;;;;;-0.80;60.66;99087.16;10353583;28;20187;-49
2022/12/14 00:20:05;;;;;;;10.32;8.13;;;;;;;-0.76;60.52;99067.78;10350837;28;20064;-49
2022/12/14 00:25:08;;;;;;;8.82;7.00;;;;;;;-0.79;59.84;99067.09;10357364;28;20052;-47
2022/12/14 00:30:11;;;;;;;10.13;7.22;;;;;;;-0.82;60.10;99055.03;10349374;28;20057;-48
2022/12/14 00:35:16;;;;;;;9.57;7.05;;;;;;;-0.78;59.66;99053.97;10358459;28;20097;-47
2022/12/14 00:40:17;;;;;;;9.73;7.28;;;;;;;-0.76;59.88;99046.88;10359669;28;20065;-47
2022/12/14 00:45:19;;;;;;;10.13;7.53;;;;;;;-0.69;59.84;99049.16;10358214;28;20045;-49
2022/12/14 00:50:20;;;;;;;9.82;7.80;;;;;;;-0.69;59.38;99043.94;10358927;28;20053;-48
2022/12/14 00:55:22;;;;;;;9.73;7.47;;;;;;;-0.57;59.25;99051.09;10357423;28;20050;-47
2022/12/14 01:00:23;;;;;;;10.77;7.43;;;;;;;-0.62;59.44;99038.28;10358457;28;20133;-54
2022/12/14 01:05:25;;;;;;;8.55;7.18;;;;;;;-0.61;59.30;99034.75;10361304;28;20211;-48
2022/12/14 01:10:29;;;;;;;9.10;6.85;;;;;;;-0.62;59.42;99037.44;10360815;28;20045;-47
2022/12/14 01:15:30;;;;;;;10.38;6.35;;;;;;;-0.57;59.17;99031.06;10357186;28;20647;-47
2022/12/14 01:20:32;;;;;;;8.38;7.05;;;;;;;-0.54;59.54;99028.28;10358935;28;20506;-49
2022/12/14 01:25:33;;;;;;;9.13;7.03;;;;;;;-0.54;59.06;99024.81;10358779;28;20251;-48
2022/12/14 01:30:38;;;;;;;8.43;6.32;;;;;;;-0.56;58.78;99016.19;10359129;28;20057;-49
2022/12/14 01:35:39;;;;;;;8.63;6.30;;;;;;;-0.54;58.97;99019.59;10358204;28;20041;-48
2022/12/14 01:40:40;;;;;;;8.23;6.40;;;;;;;-0.57;58.67;99004.91;10356067;28;20992;-48
2022/12/14 01:45:42;;;;;;;9.57;5.95;;;;;;;-0.53;58.10;99002.97;10356378;28;20055;-47
2022/12/14 01:50:46;;;;;;;7.00;6.20;;;;;;;-0.54;58.68;98998.69;10358087;28;20068;-47
2022/12/14 01:55:53;;;;;;;8.02;5.95;;;;;;;-0.56;58.29;98990.06;10357210;28;20120;-48
2022/12/14 02:00:58;;;;;;;6.90;5.85;;;;;;;-0.57;58.68;98972.69;10358798;28;20703;-48
2022/12/14 02:06:08;;;;;;;7.50;5.90;;;;;;;-0.62;58.52;98949.41;10357003;28;20041;-47
2022/12/14 02:11:09;;;;;;;9.40;6.47;;;;;;;-0.62;58.78;98951.19;10358975;28;20065;-48
2022/12/14 02:16:11;;;;;;;7.93;6.18;;;;;;;-0.64;59.05;98953.88;10365360;28;20745;-48
2022/12/14 02:21:21;;;;;;;6.63;5.90;;;;;;;-0.56;58.63;98945.63;10357327;28;20054;-48
2022/12/14 02:26:53;;;;;;;9.32;6.88;;;;;;;-0.59;58.79;98944.00;10365209;28;20045;-48
2022/12/14 02:32:31;;;;;;;8.77;6.70;;;;;;;-0.59;58.37;98922.28;10366655;28;20053;-48
2022/12/14 02:37:47;;;;;;;7.40;5.72;;;;;;;-0.61;58.71;98905.84;10366670;28;20496;-47
2022/12/14 02:43:09;;;;;;;7.90;6.25;;;;;;;-0.67;59.11;98903.56;10367831;28;20037;-48
2022/12/14 02:48:23;;;;;;;8.73;6.40;;;;;;;-0.75;59.12;98907.44;10367322;28;20050;-47
2022/12/14 02:53:37;;;;;;;8.02;6.05;;;;;;;-0.73;59.02;98904.75;10368477;28;20049;-49
2022/12/14 02:58:42;;;;;;;10.17;6.30;;;;;;;-0.65;58.96;98905.16;10359116;28;20563;-48
2022/12/14 03:03:44;;;;;;;7.93;6.00;;;;;;;-0.65;58.69;98902.53;10362706;28;20677;-49
2022/12/14 03:08:46;;;;;;;7.03;5.35;;;;;;;-0.63;58.41;98897.22;10368819;28;20068;-48
2022/12/14 03:13:57;;;;;;;6.78;5.72;;;;;;;-0.56;58.17;98891.56;10367795;28;20505;-48
2022/12/14 03:19:06;;;;;;;10.68;7.75;;;;;;;-0.50;58.86;98873.84;10366512;28;20065;-48
2022/12/14 03:24:11;;;;;;;10.07;8.43;;;;;;;-0.48;59.36;98867.63;10363501;28;20077;-48
2022/12/14 03:29:28;;;;;;;10.75;7.85;;;;;;;-0.44;59.23;98866.50;10366011;28;20144;-48
2022/12/14 03:34:42;;;;;;;8.68;6.70;;;;;;;-0.54;59.00;98862.75;10365024;28;20056;-48
2022/12/14 03:39:45;;;;;;;8.75;6.18;;;;;;;-0.63;58.51;98850.19;10363756;28;20076;-48
2022/12/14 03:44:54;;;;;;;8.23;7.25;;;;;;;-0.69;58.54;98842.69;10367941;28;20652;-47
2022/12/14 03:50:01;;;;;;;8.10;6.75;;;;;;;-0.72;59.21;98839.34;10364076;28;20226;-51
2022/12/14 03:55:19;;;;;;;9.50;6.68;;;;;;;-0.65;58.30;98831.13;10365649;28;20064;-47
2022/12/14 04:00:23;;;;;;;7.22;6.32;;;;;;;-0.51;58.30;98836.44;10365146;28;20045;-48
2022/12/14 04:05:33;;;;;;;8.20;7.00;;;;;;;-0.51;59.04;98828.59;10362318;28;20288;-49
2022/12/14 04:21:57;;;;;;;9.10;7.32;;;;;;;-0.65;59.56;98825.91;10319915;28;20063;-48
2022/12/14 04:27:10;;;;;;;7.57;6.47;;;;;;;-0.63;58.86;98824.03;10363008;28;20648;-48
2022/12/14 04:32:18;;;;;;;8.35;6.80;;;;;;;-0.60;59.04;98816.03;10362837;28;20045;-48
2022/12/14 04:37:26;;;;;;;7.22;6.18;;;;;;;-0.49;59.03;98829.31;10360105;28;20064;-49
2022/12/14 04:42:32;;;;;;;8.65;7.60;;;;;;;-0.38;58.05;98820.84;10363059;28;20101;-48
2022/12/14 04:47:42;;;;;;;9.40;6.50;;;;;;;-0.33;58.19;98821.44;10359269;28;20169;-48
2022/12/14 04:52:49;;;;;;;9.45;7.38;;;;;;;-0.34;58.67;98829.38;10361873;28;20418;-48
2022/12/14 04:57:57;;;;;;;9.60;7.63;;;;;;;-0.46;59.20;98818.69;10359343;28;20132;-48
2022/12/14 05:03:07;;;;;;;10.23;7.60;;;;;;;-0.47;58.79;98822.22;10355104;28;20056;-48
2022/12/14 05:08:16;;;;;;;8.98;7.20;;;;;;;-0.33;58.94;98821.44;10360227;28;20758;-48
2022/12/14 05:13:39;;;;;;;11.43;7.85;;;;;;;-0.36;58.89;98824.25;10357521;28;20072;-49
2022/12/14 05:18:42;;;;;;;8.55;6.93;;;;;;;-0.24;58.41;98825.28;10356772;28;20235;-48
2022/12/14 05:23:44;;;;;;;8.20;6.88;;;;;;;-0.18;58.42;98811.84;10353639;28;20812;-47
2022/12/14 05:28:46;;;;;;;8.95;7.28;;;;;;;-0.10;58.57;98817.47;10353744;28;20129;-48
2022/12/14 05:33:50;;;;;;;8.50;7.43;;;;;;;-0.07;58.50;98819.91;10353642;28;20733;-47
2022/12/14 05:38:52;;;;;;;9.25;6.65;;;;;;;-0.17;58.42;98808.28;10357323;28;20144;-48
2022/12/14 05:43:53;;;;;;;8.10;6.95;;;;;;;-0.26;58.53;98803.59;10357015;28;20054;-47
2022/12/14 05:48:55;;;;;;;8.45;6.80;;;;;;;-0.28;59.13;98805.47;10358917;28;20060;-48
2022/12/14 05:53:57;;;;;;;9.32;7.53;;;;;;;-0.25;58.91;98784.38;10363959;28;20224;-49
2022/12/14 05:58:59;;;;;;;8.32;6.88;;;;;;;-0.24;59.05;98772.97;10368125;28;20049;-47
2022/12/14 06:04:00;;;;;;;10.73;7.53;;;;;;;-0.23;58.03;98772.03;10337034;28;20053;-48
2022/12/14 06:09:06;;;;;;;9.80;7.55;;;;;;;-0.22;58.44;98751.03;10340507;28;21563;-49
2022/12/14 06:14:08;;;;;;;9.73;8.13;;;;;;;-0.20;58.21;98745.69;10338004;28;20049;-49
2022/12/14 06:19:10;;;;;;;8.63;7.57;;;;;;;-0.18;57.92;98738.63;10337943;28;20643;-49
2022/12/14 06:24:12;;;;;;;8.80;7.60;;;;;;;-0.22;58.78;98724.03;10339807;28;20061;-48
2022/12/14 06:29:17;;;;;;;10.02;7.55;;;;;;;-0.17;58.66;98716.75;10340068;28;20188;-48
2022/12/14 06:34:19;;;;;;;10.30;8.30;;;;;;;-0.11;58.03;98712.91;10334945;28;20053;-49
2022/12/14 06:39:28;;;;;;;9.27;7.70;;;;;;;-0.10;58.37;98697.13;10332743;28;20060;-47
2022/12/14 06:44:30;;;;;;;10.18;7.60;;;;;;;-0.11;58.68;98708.53;10335721;28;20126;-48
2022/12/14 06:49:31;;;;;;;10.75;8.35;;;;;;;-0.10;58.43;98689.28;10334150;28;20049;-51
2022/12/14 06:54:33;;;;;;;12.18;8.82;;;;;;;-0.05;58.58;98692.44;10335374;28;20052;-49
2022/12/14 06:59:34;;;;;;;10.98;7.75;;;;;;;0.10;58.11;98679.34;10338010;28;20135;-48
2022/12/14 07:04:35;;;;;;;14.05;9.57;;;;;;;0.13;57.46;98673.94;10332307;28;20872;-48
2022/12/14 07:09:37;;;;;;;14.15;8.52;;;;;;;0.03;57.12;98657.97;10330295;28;20068;-48
2022/12/14 07:14:38;;;;;;;12.60;8.77;;;;;;;0.09;57.32;98667.19;10350595;28;20223;-50
2022/12/14 07:19:42;;;;;;;9.90;8.13;;;;;;;0.05;56.96;98650.88;10341293;28;20145;-49
2022/12/14 07:24:43;;;;;;;12.23;8.70;;;;;;;0.11;57.02;98644.41;10335934;28;20072;-47
2022/12/14 07:29:47;;;;;;;10.20;8.18;;;;;;;0.12;57.48;98640.84;10341180;28;20050;-48
2022/12/14 07:34:48;;;;;;;13.55;7.80;;;;;;;0.15;57.14;98633.66;10332903;28;20187;-50
2022/12/14 07:39:50;;;;;;;9.70;7.90;;;;;;;0.11;56.91;98626.09;10338416;28;27783;-47
2022/12/14 07:44:51;;;;;;;14.35;8.23;;;;;;;0.13;57.17;98632.88;10336336;28;20707;-49
2022/12/14 07:49:53;;;;;;;10.52;8.13;;;;;;;0.10;56.90;98634.88;10335987;28;20302;-49
2022/12/14 07:54:54;;;;;;;11.65;7.93;;;;;;;0.15;56.83;98645.88;10351971;28;20072;-48
2022/12/14 07:59:56;;;;;;;11.23;10.07;;;;;;;0.17;57.07;98644.84;10340662;28;20080;-48
2022/12/14 08:04:58;;;;;;;16.15;12.32;;;;;;;0.21;57.89;98661.22;10335909;28;20065;-50
2022/12/14 08:09:59;;;;;;;11.13;9.52;;;;;;;0.21;58.48;98676.94;10332906;28;20057;-49
2022/12/14 08:15:00;;;;;;;10.00;8.75;;;;;;;0.32;58.68;98686.72;10336132;28;20663;-48
2022/12/14 08:20:02;;;;;;;14.05;9.70;;;;;;;0.41;58.82;98706.22;10335812;28;20046;-49
2022/12/14 08:25:04;;;;;;;10.88;8.77;;;;;;;0.35;59.45;98689.97;10338431;28;20571;-49
2022/12/14 08:30:06;;;;;;;12.18;8.85;;;;;;;0.27;60.92;98692.25;10334539;28;20058;-49
2022/12/14 08:35:08;;;;;;;10.32;8.27;;;;;;;0.21;62.38;98684.78;10340481;28;20482;-48
2022/12/14 08:40:10;;;;;;;11.60;9.88;;;;;;;0.13;63.54;98700.09;10337571;28;20065;-48
2022/12/14 08:45:11;;;;;;;10.50;8.80;;;;;;;0.09;64.00;98711.69;10334299;28;20061;-48
2022/12/14 08:50:13;;;;;;;11.65;9.18;;;;;;;0.11;64.74;98717.69;10334951;28;20254;-47
2022/12/14 08:55:17;;;;;;;12.27;9.80;;;;;;;0.13;65.40;98694.88;10334538;28;20495;-50
2022/12/14 09:00:25;;;;;;;13.23;9.95;;;;;;;0.05;66.30;98691.91;10327621;28;20057;-48
2022/12/14 09:05:27;;;;;;;13.27;10.32;;;;;;;0.04;67.68;98674.50;10335459;28;20055;-47
2022/12/14 09:10:28;;;;;;;13.25;10.48;;;;;;;0.09;66.71;98678.53;10333468;28;20049;-53
2022/12/14 09:15:30;;;;;;;12.18;9.60;;;;;;;0.11;66.90;98676.66;10336027;28;20057;-48
2022/12/14 09:20:31;;;;;;;10.00;8.30;;;;;;;0.10;67.82;98679.34;10338182;28;21043;-48
2022/12/14 09:25:32;;;;;;;11.90;9.30;;;;;;;0.16;67.21;98694.66;10337983;28;20065;-50
2022/12/14 09:30:34;;;;;;;12.90;9.45;;;;;;;0.19;67.56;98693.66;10336345;28;20551;-50
2022/12/14 09:35:35;;;;;;;12.10;10.02;;;;;;;0.14;67.77;98705.22;10335008;28;20394;-50
2022/12/14 09:40:41;;;;;;;11.77;10.10;;;;;;;0.15;67.19;98700.84;10335035;28;20049;-49
2022/12/14 09:45:53;;;;;;;10.88;8.75;;;;;;;0.18;66.96;98690.16;10346892;28;20060;-47
2022/12/14 09:50:55;;;;;;;11.65;9.05;;;;;;;0.16;67.55;98678.97;10329298;28;20060;-48
2022/12/14 09:55:57;;;;;;;10.70;9.40;;;;;;;0.23;67.17;98674.22;10331214;28;20057;-49
2022/12/14 10:01:17;;;;;;;12.48;10.45;;;;;;;0.27;68.24;98665.19;10332436;28;20053;-48
2022/12/14 10:06:27;;;;;;;16.23;10.93;;;;;;;0.37;68.12;98670.72;10325605;28;20045;-49
2022/12/14 10:11:43;;;;;;;11.27;9.07;;;;;;;0.39;68.34;98668.81;10332660;28;20191;-50
2022/12/14 10:17:13;;;;;;;14.35;9.80;;;;;;;0.40;68.30;98660.03;10332365;28;20053;-50
2022/12/14 10:22:19;;;;;;;11.18;9.15;;;;;;;0.47;68.06;98656.94;10329409;28;20877;-49
2022/12/14 10:27:23;;;;;;;11.35;9.10;;;;;;;0.49;67.69;98657.66;10327941;28;20061;-47
2022/12/14 10:32:33;;;;;;;11.20;9.35;;;;;;;0.43;67.13;98649.38;10327743;28;20049;-49
2022/12/14 10:37:38;;;;;;;12.40;9.50;;;;;;;0.46;66.88;98644.75;10338733;28;20045;-48
2022/12/14 10:42:48;;;;;;;10.80;9.05;;;;;;;0.50;66.55;98645.41;10336775;28;20105;-48
2022/12/14 10:48:10;;;;;;;10.88;8.63;;;;;;;0.40;67.07;98639.09;10333275;28;20244;-48
2022/12/14 10:53:16;;;;;;;12.18;8.93;;;;;;;0.40;67.37;98628.63;10334952;28;20531;-48
2022/12/14 10:58:17;;;;;;;12.82;10.55;;;;;;;0.43;67.61;98628.44;10336545;28;20733;-48
2022/12/14 11:03:19;;;;;;;10.52;9.40;;;;;;;0.41;67.46;98615.44;10336563;28;20049;-49
2022/12/14 11:08:45;;;;;;;12.80;10.38;;;;;;;0.59;67.21;98625.66;10332955;28;20057;-48
2022/12/14 11:14:08;;;;;;;14.88;10.63;;;;;;;0.57;67.13;98615.28;10333351;28;20544;-48
2022/12/14 11:19:22;;;;;;;14.05;11.07;;;;;;;0.57;66.93;98625.75;10335663;28;20060;-49
2022/12/14 11:24:26;;;;;;;11.93;9.68;;;;;;;0.62;67.20;98628.06;10335808;28;20053;-50
2022/12/14 11:29:32;;;;;;;13.25;11.32;;;;;;;0.60;67.35;98620.31;10335508;28;20045;-49
2022/12/14 11:34:40;;;;;;;12.25;10.73;;;;;;;0.59;67.51;98617.81;10333795;28;20072;-48
2022/12/14 11:39:41;;;;;;;13.98;10.27;;;;;;;0.64;67.63;98620.94;10330489;28;21243;-49
2022/12/14 11:44:45;;;;;;;12.43;10.25;;;;;;;0.60;67.97;98620.31;10331159;28;20060;-46
2022/12/14 11:49:53;;;;;;;12.50;10.52;;;;;;;0.53;68.00;98606.78;10332893;28;20887;-48
2022/12/14 11:54:54;;;;;;;13.68;9.80;;;;;;;0.60;68.36;98604.59;10333857;28;20269;-48
2022/12/14 12:00:20;;;;;;;12.68;10.27;;;;;;;0.56;69.06;98608.38;10333323;28;20056;-48
2022/12/14 12:05:22;;;;;;;12.02;10.48;;;;;;;0.67;68.82;98611.09;10336460;28;20045;-49
2022/12/14 12:10:39;;;;;;;11.80;10.57;;;;;;;0.82;68.54;98592.69;10331871;28;20057;-48
2022/12/14 12:15:45;;;;;;;14.05;10.60;;;;;;;0.97;68.04;98614.41;10328574;28;20454;-49
2022/12/14 12:21:14;;;;;;;13.82;10.20;;;;;;;1.03;67.93;98606.13;10336380;28;20060;-49
2022/12/14 12:26:29;;;;;;;14.52;10.77;;;;;;;1.01;68.32;98603.63;10324424;28;20138;-48
2022/12/14 12:31:40;;;;;;;17.57;12.43;;;;;;;0.96;67.45;98607.47;10335984;28;20650;-48
2022/12/14 12:36:43;;;;;;;15.05;11.32;;;;;;;1.81;66.36;98602.50;10331188;28;20772;-46
2022/12/14 12:42:43;;;;;;;13.68;10.93;;;;;;;1.48;65.80;98613.59;10329603;28;20042;-47
2022/12/14 12:47:52;;;;;;;13.23;10.82;;;;;;;1.05;66.35;98626.06;10314375;28;20122;-47
2022/12/14 12:53:02;;;;;;;13.30;11.27;;;;;;;0.94;66.75;98620.69;10332320;28;20725;-47
2022/12/14 12:58:08;;;;;;;14.32;11.23;;;;;;;0.85;66.83;98619.50;10330399;28;20061;-47
2022/12/14 13:03:36;;;;;;;14.90;11.95;;;;;;;0.88;66.62;98628.97;10332009;28;20049;-47
2022/12/14 13:08:40;;;;;;;16.13;11.40;;;;;;;1.01;66.10;98618.50;10333502;28;20042;-47
2022/12/14 13:13:47;;;;;;;11.65;10.25;;;;;;;1.02;65.40;98634.13;10334307;28;20058;-46
2022/12/14 13:18:52;;;;;;;13.02;9.82;;;;;;;1.01;65.88;98629.81;10338024;28;20068;-47
2022/12/14 13:24:19;;;;;;;11.30;10.10;;;;;;;0.97;65.81;98636.19;10336600;28;20060;-47
2022/12/14 13:29:29;;;;;;;14.10;9.85;;;;;;;0.94;66.08;98633.78;10334417;28;21475;-48
2022/12/14 13:34:42;;;;;;;12.30;10.43;;;;;;;1.18;65.83;98641.78;10337294;28;20180;-46
2022/12/14 13:40:22;;;;;;;13.10;10.60;;;;;;;1.35;64.66;98632.78;10334961;28;20489;-47
2022/12/14 13:45:30;;;;;;;13.10;10.60;;;;;;;1.67;63.58;98642.84;10334331;28;20049;-49
2022/12/14 13:50:36;;;;;;;14.02;10.02;;;;;;;1.57;63.11;98657.53;10333442;28;20057;-47
2022/12/14 13:55:50;;;;;;;12.60;9.85;;;;;;;1.50;63.72;98658.88;10337247;28;20038;-47
2022/12/14 14:00:58;;;;;;;11.50;9.35;;;;;;;1.30;63.33;98661.09;10336503;28;20057;-48
2022/12/14 14:06:21;;;;;;;11.68;9.68;;;;;;;1.21;62.84;98652.06;10336617;28;20054;-47
2022/12/14 14:11:26;;;;;;;11.00;9.35;;;;;;;1.20;63.22;98654.78;10340629;28;20140;-47
2022/12/14 14:16:49;;;;;;;15.02;11.02;;;;;;;1.27;63.11;98653.44;10337856;28;20053;-46
2022/12/14 14:22:09;;;;;;;13.93;9.93;;;;;;;1.42;62.99;98657.63;10338778;28;20318;-47
2022/12/14 14:27:46;;;;;;;14.02;10.30;;;;;;;1.47;62.12;98656.47;10334839;28;20777;-46
2022/12/14 14:32:52;;;;;;;11.40;9.52;;;;;;;1.45;62.59;98661.84;10334689;28;20108;-53
2022/12/14 14:38:00;;;;;;;13.68;11.20;;;;;;;1.42;62.78;98652.38;10336317;28;20061;-49
2022/12/14 14:43:16;;;;;;;13.40;10.88;;;;;;;1.34;63.55;98659.13;10336191;28;20049;-46
2022/12/14 14:48:33;;;;;;;11.43;9.68;;;;;;;0.86;63.75;98636.09;10336710;28;20961;-46
2022/12/14 14:53:37;;;;;;;13.10;10.13;;;;;;;0.95;64.54;98682.63;10330599;28;20057;-49
2022/12/14 14:58:40;;;;;;;14.68;11.73;;;;;;;0.87;64.38;98687.53;10330870;28;20067;-47
2022/12/14 15:03:51;;;;;;;16.88;13.55;;;;;;;0.94;64.50;98680.13;10329317;28;20061;-46
2022/12/14 15:09:08;;;;;;;15.32;12.20;;;;;;;0.65;64.96;98701.19;10328701;28;20160;-45
2022/12/14 15:14:34;;;;;;;13.07;11.02;;;;;;;0.66;65.38;98703.72;10327080;28;20089;-46
2022/12/14 15:19:37;;;;;;;13.85;11.45;;;;;;;0.56;65.52;98707.03;10334912;28;20056;-46
2022/12/14 15:24:42;;;;;;;14.55;12.07;;;;;;;0.57;65.63;98721.78;10331135;28;20057;-48
2022/12/14 15:29:45;;;;;;;13.20;11.70;;;;;;;0.57;65.66;98734.88;10327690;28;20056;-47
2022/12/14 15:34:55;;;;;;;13.57;11.27;;;;;;;0.52;65.80;98753.50;10330000;28;20523;-48
2022/12/14 15:40:05;;;;;;;12.93;11.05;;;;;;;0.32;65.74;98763.44;10331456;28;20620;-48
2022/12/14 15:45:13;;;;;;;12.57;10.98;;;;;;;0.45;65.33;98757.44;10330316;28;20111;-47
2022/12/14 15:50:29;;;;;;;12.98;10.90;;;;;;;0.38;65.43;98756.16;10331909;28;20041;-47
2022/12/14 15:55:39;;;;;;;13.57;11.32;;;;;;;0.52;66.78;98753.50;10327914;28;20730;-49
2022/12/14 16:00:48;;;;;;;11.70;10.50;;;;;;;0.41;65.01;98755.97;10328233;28;20046;-47
2022/12/14 16:05:49;;;;;;;15.32;11.70;;;;;;;0.39;64.98;98776.16;10331312;28;20549;-47
2022/12/14 16:10:54;;;;;;;12.93;9.75;;;;;;;0.34;65.34;98787.75;10332220;28;20052;-47
2022/12/14 16:15:57;;;;;;;13.87;12.47;;;;;;;0.23;65.86;98798.03;10326586;28;20493;-47
2022/12/14 16:21:01;;;;;;;16.45;11.77;;;;;;;0.22;65.38;98788.50;10331670;28;20057;-47
2022/12/14 16:26:36;;;;;;;17.75;13.80;;;;;;;0.21;65.72;98794.69;10328476;28;20045;-47
2022/12/14 16:31:37;;;;;;;14.45;12.77;;;;;;;0.25;65.54;98790.94;10341398;28;20042;-48
2022/12/14 16:36:39;;;;;;;15.73;13.65;;;;;;;0.16;65.41;98796.72;10331604;28;20057;-48
2022/12/14 16:41:59;;;;;;;21.90;17.98;;;;;;;0.23;64.73;98803.28;10333008;28;20132;-47
2022/12/14 16:47:03;;;;;;;18.98;15.60;;;;;;;0.53;64.80;98803.16;10329478;28;20164;-48
2022/12/14 16:52:08;;;;;;;20.48;18.25;;;;;;;0.43;64.27;98807.28;10326522;28;20790;-47
2022/12/14 16:57:22;;;;;;;20.47;16.20;;;;;;;0.38;65.19;98806.75;10322097;28;20064;-47
2022/12/14 17:02:29;;;;;;;19.60;15.15;;;;;;;0.30;65.16;98804.59;10325434;28;20053;-48
2022/12/14 17:07:32;;;;;;;21.70;17.30;;;;;;;0.27;65.07;98804.78;10309143;28;20049;-49
2022/12/14 17:12:33;;;;;;;21.27;13.80;;;;;;;0.30;65.26;98816.81;10326719;28;20049;-51
2022/12/14 17:17:35;;;;;;;20.15;14.82;;;;;;;0.33;65.30;98848.91;10332173;28;20045;-49
2022/12/14 17:22:36;;;;;;;18.52;15.88;;;;;;;0.35;64.61;98846.19;10332641;28;20725;-47
2022/12/14 17:27:39;;;;;;;16.42;13.52;;;;;;;0.42;63.98;98854.50;10335293;28;20050;-48
2022/12/14 17:32:41;;;;;;;17.88;15.15;;;;;;;0.25;65.01;98872.06;10333656;28;20508;-48
2022/12/14 17:37:43;;;;;;;22.65;18.25;;;;;;;0.14;65.66;98867.47;10333301;28;20856;-48
2022/12/14 17:42:50;;;;;;;19.38;14.57;;;;;;;0.09;65.65;98866.06;10337246;28;20737;-48
2022/12/14 17:47:53;;;;;;;16.60;13.10;;;;;;;0.33;66.76;98875.09;10340343;28;20590;-47
2022/12/14 17:52:54;;;;;;;15.32;12.88;;;;;;;0.46;65.52;98879.56;10336412;28;20659;-47
2022/12/14 17:57:56;;;;;;;15.10;12.65;;;;;;;0.19;64.33;98885.53;10341939;28;20054;-49
2022/12/14 18:02:58;;;;;;;15.35;13.02;;;;;;;0.08;64.03;98888.78;10342958;28;20060;-49
2022/12/14 18:08:00;;;;;;;14.45;11.43;;;;;;;0.19;64.46;98896.00;10342515;28;20083;-48
2022/12/14 18:13:02;;;;;;;16.60;12.25;;;;;;;0.21;64.29;98891.53;10339435;28;20390;-48
2022/12/14 18:18:04;;;;;;;12.85;11.38;;;;;;;0.23;64.50;98883.59;10344252;28;20041;-48
2022/12/14 18:23:12;;;;;;;15.75;12.38;;;;;;;0.23;64.72;98884.41;10342393;28;20140;-48
2022/12/14 18:28:14;;;;;;;12.73;11.43;;;;;;;0.23;64.74;98884.41;10340827;28;20041;-48
2022/12/14 18:33:19;;;;;;;15.55;13.48;;;;;;;0.27;64.89;98891.16;10341765;28;20259;-48
2022/12/14 18:38:20;;;;;;;17.00;13.27;;;;;;;0.30;64.88;98895.34;10344967;28;20504;-49
2022/12/14 18:43:25;;;;;;;18.88;13.90;;;;;;;0.30;64.62;98883.13;10344661;28;20468;-49
2022/12/14 18:48:26;;;;;;;18.15;15.57;;;;;;;0.20;65.12;98895.06;10344677;28;20045;-48
2022/12/14 18:53:28;;;;;;;19.77;15.23;;;;;;;0.15;64.84;98889.25;10339183;28;20057;-49
2022/12/14 18:58:30;;;;;;;17.60;13.95;;;;;;;0.34;64.84;98916.00;10342457;28;20079;-48
2022/12/14 19:03:31;;;;;;;18.67;14.85;;;;;;;0.24;64.29;98909.66;10354656;28;20054;-49
2022/12/14 19:08:34;;;;;;;19.52;15.52;;;;;;;0.15;65.47;98920.66;10346185;28;20058;-48
2022/12/14 19:13:35;;;;;;;17.80;15.18;;;;;;;0.07;65.37;98925.50;10337977;28;20422;-47
2022/12/14 19:18:37;;;;;;;17.85;15.48;;;;;;;0.06;65.91;98923.81;10336059;28;20084;-48
2022/12/14 19:23:38;;;;;;;16.02;13.60;;;;;;;0.17;64.82;98929.28;10331506;28;20064;-47
2022/12/14 19:28:40;;;;;;;18.73;15.10;;;;;;;0.01;64.86;98925.88;10335884;28;20681;-48
2022/12/14 19:33:41;;;;;;;19.50;14.60;;;;;;;-0.04;64.81;98932.22;10332072;28;20613;-47
2022/12/14 19:38:43;;;;;;;18.27;14.55;;;;;;;0.09;65.05;98950.66;10333761;28;20057;-47
2022/12/14 19:43:49;;;;;;;18.77;14.82;;;;;;;-0.05;65.64;98948.00;10331430;28;20072;-49
2022/12/14 19:48:51;;;;;;;18.95;15.45;;;;;;;0.04;64.63;98951.84;10330739;28;20057;-49
2022/12/14 19:53:53;;;;;;;18.92;16.08;;;;;;;-0.05;65.31;98954.06;10333116;28;20199;-49
2022/12/14 19:58:59;;;;;;;17.23;14.93;;;;;;;0.01;65.89;98946.81;10335787;28;20054;-49
2022/12/14 20:04:01;;;;;;;18.08;14.88;;;;;;;-0.02;65.19;98964.34;10347085;28;20053;-49
2022/12/14 20:09:04;;;;;;;17.73;15.48;;;;;;;-0.09;65.78;98963.03;10330719;28;20053;-49
2022/12/14 20:14:06;;;;;;;21.20;16.40;;;;;;;-0.20;66.31;98965.41;10329472;28;20141;-49
2022/12/14 20:19:09;;;;;;;23.30;17.67;;;;;;;-0.14;66.35;98975.50;10331777;28;20057;-48
2022/12/14 20:24:12;;;;;;;23.85;17.88;;;;;;;-0.23;67.01;98970.81;10336900;28;20406;-48
2022/12/14 20:29:14;;;;;;;22.02;17.42;;;;;;;-0.24;66.71;98969.97;10334283;28;20160;-49
2022/12/14 20:34:15;;;;;;;23.77;17.63;;;;;;;-0.23;67.01;98974.25;10327161;28;20057;-47
2022/12/14 20:39:18;;;;;;;18.77;15.82;;;;;;;0.02;66.07;98977.28;10335474;28;20102;-47
2022/12/14 20:44:20;;;;;;;20.80;16.45;;;;;;;0.02;66.03;98985.97;10315541;28;20057;-47
2022/12/14 20:49:28;;;;;;;21.33;16.33;;;;;;;-0.15;66.08;98986.06;10337213;28;20049;-47
2022/12/14 20:54:29;;;;;;;18.83;15.52;;;;;;;-0.16;66.36;98992.25;10334758;28;20064;-47
2022/12/14 20:59:32;;;;;;;17.73;14.13;;;;;;;-0.22;66.16;98977.75;10334427;28;20048;-48
2022/12/14 21:04:33;;;;;;;17.98;14.57;;;;;;;-0.09;66.28;98989.19;10334486;28;20413;-47
2022/12/14 21:09:35;;;;;;;17.52;13.93;;;;;;;0.05;65.15;98983.16;10336681;28;20780;-47
2022/12/14 21:14:41;;;;;;;18.88;14.50;;;;;;;-0.04;65.35;98981.09;10331529;28;20788;-48
2022/12/14 21:19:42;;;;;;;20.75;14.80;;;;;;;-0.19;66.38;98991.47;10331608;28;20052;-47
2022/12/14 21:24:44;;;;;;;20.02;16.35;;;;;;;-0.23;66.33;98996.97;10335453;28;20721;-49
2022/12/14 21:30:07;;;;;;;20.48;15.52;;;;;;;-0.51;67.03;98995.91;10334390;28;20161;-48
2022/12/14 21:35:09;;;;;;;23.90;18.38;;;;;;;-0.87;67.86;98986.50;10332111;28;20060;-47
2022/12/14 21:42:09;;;;;;;24.95;18.10;;;;;;;-0.94;67.58;99003.44;10333667;28;20053;-48
2022/12/14 21:45:32;;;;;;;31.20;21.75;;;;;;;-1.22;67.92;99011.88;10331944;28;20214;-48
2022/12/14 21:50:34;;;;;;;28.02;22.75;;;;;;;-1.47;68.15;99019.19;10333011;28;20057;-48
2022/12/14 21:55:35;;;;;;;29.30;23.38;;;;;;;-1.63;68.57;99018.28;10328434;28;21122;-48
2022/12/14 22:00:37;;;;;;;32.10;24.77;;;;;;;-1.71;69.07;99026.50;10330193;28;20060;-49
2022/12/14 22:05:38;;;;;;;31.02;25.70;;;;;;;-1.71;69.24;99041.28;10330946;28;20080;-48
2022/12/14 22:10:39;;;;;;;35.88;26.92;;;;;;;-1.67;70.17;99033.22;10332989;28;20073;-48
2022/12/14 22:15:41;;;;;;;31.05;26.60;;;;;;;-1.75;70.22;99027.56;10330554;28;23036;-48
2022/12/14 22:20:42;;;;;;;33.08;26.17;;;;;;;-1.82;70.24;99029.63;10331647;28;22526;-48
2022/12/14 22:25:49;;;;;;;30.60;24.77;;;;;;;-1.84;70.29;99036.69;10329459;28;20053;-47
2022/12/14 22:30:50;;;;;;;28.60;23.77;;;;;;;-1.91;70.45;99034.44;10342799;28;20053;-50
2022/12/14 22:35:51;;;;;;;31.77;25.35;;;;;;;-1.94;70.34;99030.22;10343629;28;20107;-49
2022/12/14 22:41:00;;;;;;;27.23;23.55;;;;;;;-2.00;70.51;99020.09;10369114;28;20600;-49
2022/12/14 22:46:02;;;;;;;30.83;24.90;;;;;;;-2.05;71.16;99019.47;10368960;28;20053;-47
2022/12/14 22:51:08;;;;;;;32.85;24.52;;;;;;;-2.00;70.78;99035.72;10369589;28;20072;-48
2022/12/14 22:56:20;;;;;;;35.90;25.05;;;;;;;-2.01;70.50;99045.34;10370481;28;20464;-55
2022/12/14 23:01:22;;;;;;;29.15;23.05;;;;;;;-2.03;71.55;99057.59;10366523;28;20553;-48
2022/12/14 23:06:23;;;;;;;33.45;25.05;;;;;;;-2.01;70.59;99066.19;10371783;28;20045;-53
